createdAt,value
2023-05-22T00:01:06.643Z,16.89
2023-05-22T00:04:08.891Z,16.86
2023-05-22T00:07:10.768Z,16.85
2023-05-22T00:10:12.957Z,16.85
2023-05-22T00:13:14.779Z,16.84
2023-05-22T00:16:16.487Z,16.83
2023-05-22T00:19:19.019Z,16.80
2023-05-22T00:22:21.065Z,16.75
2023-05-22T00:25:24.157Z,16.72
2023-05-22T00:28:26.513Z,16.66
2023-05-22T00:31:28.586Z,16.60
2023-05-22T00:34:30.349Z,16.60
2023-05-22T00:37:32.243Z,16.58
2023-05-22T00:40:34.441Z,16.60
2023-05-22T00:43:39.547Z,16.55
2023-05-22T00:46:41.540Z,16.55
2023-05-22T00:49:45.847Z,16.54
2023-05-22T00:52:47.749Z,16.52
2023-05-22T00:55:49.778Z,16.51
2023-05-22T00:58:52.149Z,16.50
2023-05-22T01:01:55.029Z,16.50
2023-05-22T01:04:58.020Z,16.48
2023-05-22T01:07:59.830Z,16.51
2023-05-22T01:11:07.130Z,16.51
2023-05-22T01:14:14.996Z,16.51
2023-05-22T01:17:34.778Z,16.49
2023-05-22T01:20:43.526Z,16.47
2023-05-22T01:24:17.494Z,16.45
2023-05-22T01:27:37.571Z,16.42
2023-05-22T01:31:04.649Z,16.38
2023-05-22T01:34:11.712Z,16.34
2023-05-22T01:37:15.465Z,16.31
2023-05-22T01:40:18.409Z,16.26
2023-05-22T01:43:20.765Z,16.24
2023-05-22T01:46:26.914Z,16.19
2023-05-22T01:49:29.212Z,16.14
2023-05-22T01:52:59.785Z,16.11
2023-05-22T01:56:10.278Z,16.06
2023-05-22T01:59:37.761Z,16.05
2023-05-22T02:03:02.600Z,16.03
2023-05-22T02:06:07.770Z,16.00
2023-05-22T02:09:10.815Z,15.96
2023-05-22T02:12:14.339Z,15.92
2023-05-22T02:15:19.569Z,15.88
2023-05-22T02:18:29.411Z,15.85
2023-05-22T02:21:32.521Z,15.78
2023-05-22T02:24:36.958Z,15.73
2023-05-22T02:27:38.909Z,15.67
2023-05-22T02:30:42.009Z,15.62
2023-05-22T02:33:44.544Z,15.58
2023-05-22T02:36:47.868Z,15.52
2023-05-22T02:39:49.860Z,15.49
2023-05-22T02:42:52.228Z,15.48
2023-05-22T02:45:54.257Z,15.45
2023-05-22T02:48:56.061Z,15.40
2023-05-22T02:51:58.270Z,15.41
2023-05-22T02:54:59.965Z,15.39
2023-05-22T02:58:03.179Z,15.37
2023-05-22T03:01:09.083Z,15.33
2023-05-22T03:04:13.062Z,15.31
2023-05-22T03:07:17.049Z,15.29
2023-05-22T03:10:19.152Z,15.25
2023-05-22T03:13:21.202Z,15.22
2023-05-22T03:16:23.055Z,15.21
2023-05-22T03:19:25.117Z,15.21
2023-05-22T03:22:27.470Z,15.18
2023-05-22T03:25:29.466Z,15.17
2023-05-22T03:28:31.498Z,15.16
2023-05-22T03:31:34.061Z,15.16
2023-05-22T03:34:45.471Z,15.13
2023-05-22T03:37:47.528Z,15.13
2023-05-22T03:40:50.122Z,15.13
2023-05-22T03:43:51.936Z,15.12
2023-05-22T03:46:54.240Z,15.15
2023-05-22T03:49:56.163Z,15.18
2023-05-22T03:52:58.330Z,15.21
2023-05-22T03:56:00.219Z,15.24
2023-05-22T03:59:02.078Z,15.28
2023-05-22T04:02:04.238Z,15.32
2023-05-22T04:05:08.301Z,15.36
2023-05-22T04:08:10.067Z,15.40
2023-05-22T04:11:15.511Z,15.47
2023-05-22T04:14:17.433Z,15.51
2023-05-22T04:17:21.163Z,15.59
2023-05-22T04:20:23.015Z,15.67
2023-05-22T04:23:25.816Z,15.78
2023-05-22T04:26:32.079Z,15.88
2023-05-22T04:29:36.338Z,15.99
2023-05-22T04:32:38.403Z,16.10
2023-05-22T04:35:46.493Z,16.15
2023-05-22T04:38:49.019Z,16.24
2023-05-22T04:41:50.799Z,16.29
2023-05-22T04:44:54.469Z,16.33
2023-05-22T04:47:57.240Z,16.42
2023-05-22T04:50:59.419Z,16.47
2023-05-22T04:54:01.238Z,16.53
2023-05-22T04:57:05.075Z,16.61
2023-05-22T05:00:08.338Z,16.68
2023-05-22T05:03:12.502Z,16.76
2023-05-22T05:06:14.411Z,16.85
2023-05-22T05:09:17.129Z,16.89
2023-05-22T05:12:19.539Z,16.94
2023-05-22T05:15:22.835Z,17.01
2023-05-22T05:18:26.453Z,17.07
2023-05-22T05:21:28.233Z,17.12
2023-05-22T05:24:33.132Z,17.21
2023-05-22T05:27:35.182Z,17.24
2023-05-22T05:30:41.398Z,17.32
2023-05-22T05:34:02.095Z,17.40
2023-05-22T05:37:24.315Z,17.49
2023-05-22T05:40:27.699Z,17.58
2023-05-22T05:43:29.688Z,17.67
2023-05-22T05:46:37.752Z,17.78
2023-05-22T05:49:39.930Z,17.84
2023-05-22T05:52:42.508Z,17.93
2023-05-22T05:55:48.801Z,18.03
2023-05-22T05:58:51.562Z,18.12
2023-05-22T06:02:04.024Z,18.17
2023-05-22T06:05:09.267Z,18.22
2023-05-22T06:08:14.152Z,18.28
2023-05-22T06:11:16.396Z,18.30
2023-05-22T06:14:28.306Z,18.39
2023-05-22T06:17:30.270Z,18.40
2023-05-22T06:20:33.034Z,18.41
2023-05-22T06:23:35.884Z,18.44
2023-05-22T06:26:38.314Z,18.46
2023-05-22T06:29:40.204Z,18.57
2023-05-22T06:32:43.322Z,18.66
2023-05-22T06:35:45.617Z,18.78
2023-05-22T06:38:49.543Z,18.92
2023-05-22T06:42:11.738Z,19.06
2023-05-22T06:45:49.060Z,19.14
2023-05-22T06:49:09.803Z,19.13
2023-05-22T06:52:18.769Z,19.12
2023-05-22T06:55:20.801Z,19.12
2023-05-22T06:58:35.272Z,19.11
2023-05-22T07:01:40.274Z,19.13
2023-05-22T07:04:45.832Z,19.21
2023-05-22T07:07:52.767Z,19.33
2023-05-22T07:10:55.670Z,19.45
2023-05-22T07:13:57.669Z,19.52
2023-05-22T07:17:00.267Z,19.53
2023-05-22T07:20:10.074Z,19.53
2023-05-22T07:23:13.416Z,19.57
2023-05-22T07:26:16.650Z,19.58
2023-05-22T07:29:25.541Z,19.60
2023-05-22T07:32:29.722Z,19.72
2023-05-22T07:35:34.770Z,19.81
2023-05-22T07:38:36.784Z,19.94
2023-05-22T07:41:40.130Z,20.15
2023-05-22T07:44:44.806Z,20.27
2023-05-22T07:47:46.721Z,20.21
2023-05-22T07:50:49.140Z,20.14
2023-05-22T07:53:50.902Z,20.13
2023-05-22T07:56:53.027Z,20.09
2023-05-22T07:59:57.140Z,20.13
2023-05-22T08:02:59.541Z,20.22
2023-05-22T08:06:01.846Z,20.36
2023-05-22T08:09:04.837Z,20.43
2023-05-22T08:12:07.979Z,20.50
2023-05-22T08:15:11.295Z,20.58
2023-05-22T08:18:13.971Z,20.71
2023-05-22T08:21:15.891Z,20.81
2023-05-22T08:24:17.745Z,20.88
2023-05-22T08:27:19.680Z,20.93
2023-05-22T08:30:22.644Z,21.00
2023-05-22T08:33:24.870Z,21.10
2023-05-22T08:36:26.942Z,21.13
2023-05-22T08:39:29.210Z,21.20
2023-05-22T08:42:31.122Z,21.30
2023-05-22T08:45:34.414Z,21.42
2023-05-22T08:48:38.315Z,21.57
2023-05-22T08:51:42.495Z,21.59
2023-05-22T08:54:53.025Z,21.59
2023-05-22T08:57:56.788Z,21.59
2023-05-22T09:00:59.510Z,21.65
2023-05-22T09:04:03.570Z,21.77
2023-05-22T09:07:05.839Z,21.89
2023-05-22T09:10:09.153Z,22.05
2023-05-22T09:13:11.596Z,22.20
2023-05-22T09:16:14.070Z,22.36
2023-05-22T09:19:16.647Z,22.51
2023-05-22T09:22:18.790Z,22.72
2023-05-22T09:25:21.957Z,22.92
2023-05-22T09:28:25.146Z,23.09
2023-05-22T09:31:29.513Z,23.20
2023-05-22T09:34:32.979Z,23.25
2023-05-22T09:37:36.117Z,23.33
2023-05-22T09:40:39.490Z,23.31
2023-05-22T09:43:50.740Z,23.30
2023-05-22T09:46:54.963Z,23.28
2023-05-22T09:49:58.840Z,23.36
2023-05-22T09:53:04.847Z,23.54
2023-05-22T09:56:12.104Z,23.73
2023-05-22T09:59:15.206Z,23.95
2023-05-22T10:02:18.241Z,24.07
2023-05-22T10:05:22.055Z,24.16
2023-05-22T10:08:41.958Z,24.23
2023-05-22T10:11:44.448Z,24.29
2023-05-22T10:14:46.522Z,24.38
2023-05-22T10:17:49.408Z,24.48
2023-05-22T10:20:51.924Z,24.56
2023-05-22T10:23:55.035Z,24.64
2023-05-22T10:26:57.917Z,24.82
2023-05-22T10:30:25.501Z,24.95
2023-05-22T10:33:51.524Z,25.03
2023-05-22T10:37:18.478Z,25.16
2023-05-22T10:40:36.094Z,25.22
2023-05-22T10:43:44.484Z,25.23
2023-05-22T10:46:55.746Z,25.18
2023-05-22T10:50:08.719Z,25.21
2023-05-22T10:53:27.942Z,25.21
2023-05-22T10:56:35.339Z,25.25
2023-05-22T10:59:37.451Z,25.25
2023-05-22T11:02:45.644Z,25.13
2023-05-22T11:05:54.502Z,25.03
2023-05-22T11:08:57.612Z,25.12
2023-05-22T11:12:21.478Z,25.30
2023-05-22T11:15:31.827Z,25.50
2023-05-22T11:18:34.081Z,25.65
2023-05-22T11:21:42.528Z,25.81
2023-05-22T11:24:45.115Z,25.95
2023-05-22T11:27:48.462Z,26.02
2023-05-22T11:30:51.028Z,25.88
2023-05-22T11:33:54.124Z,25.82
2023-05-22T11:37:00.075Z,25.92
2023-05-22T11:40:05.868Z,26.23
2023-05-22T11:43:09.440Z,26.48
2023-05-22T11:46:12.328Z,26.78
2023-05-22T11:49:14.223Z,27.00
2023-05-22T11:52:19.507Z,27.19
2023-05-22T11:55:23.027Z,27.26
2023-05-22T11:58:32.327Z,27.48
2023-05-22T12:01:34.230Z,27.65
2023-05-22T12:04:37.921Z,27.69
2023-05-22T12:07:39.960Z,27.81
2023-05-22T12:10:49.907Z,27.81
2023-05-22T12:14:00.569Z,27.80
2023-05-22T12:17:04.805Z,27.61
2023-05-22T12:20:07.456Z,27.32
2023-05-22T12:23:28.884Z,26.84
2023-05-22T12:26:31.385Z,26.50
2023-05-22T12:29:34.908Z,26.24
2023-05-22T12:32:36.775Z,26.09
2023-05-22T12:35:40.349Z,25.97
2023-05-22T12:38:42.274Z,26.00
2023-05-22T12:41:45.566Z,26.05
2023-05-22T12:44:47.533Z,26.14
2023-05-22T12:47:49.332Z,26.25
2023-05-22T12:50:51.233Z,26.41
2023-05-22T12:53:53.408Z,26.59
2023-05-22T12:56:55.552Z,26.79
2023-05-22T12:59:57.625Z,26.93
2023-05-22T13:02:59.655Z,27.13
2023-05-22T13:06:01.777Z,27.23
2023-05-22T13:09:03.640Z,27.45
2023-05-22T13:12:06.220Z,27.67
2023-05-22T13:15:08.700Z,27.85
2023-05-22T13:18:11.844Z,28.07
2023-05-22T13:21:14.042Z,28.22
2023-05-22T13:24:16.052Z,28.56
2023-05-22T13:27:18.782Z,28.87
2023-05-22T13:30:20.895Z,29.29
2023-05-22T13:33:23.447Z,29.86
2023-05-22T13:36:25.631Z,30.76
2023-05-22T13:39:27.362Z,31.73
2023-05-22T13:42:30.970Z,32.34
2023-05-22T13:45:33.112Z,32.41
2023-05-22T13:48:35.202Z,32.49
2023-05-22T13:51:38.061Z,32.65
2023-05-22T13:54:40.151Z,32.57
2023-05-22T13:57:42.304Z,31.66
2023-05-22T14:00:45.167Z,30.55
2023-05-22T14:03:47.519Z,29.77
2023-05-22T14:06:49.526Z,29.25
2023-05-22T14:09:52.617Z,29.09
2023-05-22T14:12:54.969Z,28.95
2023-05-22T14:15:57.586Z,28.81
2023-05-22T14:19:00.873Z,28.59
2023-05-22T14:22:02.868Z,28.25
2023-05-22T14:25:05.370Z,27.78
2023-05-22T14:28:07.610Z,27.28
2023-05-22T14:31:09.681Z,26.78
2023-05-22T14:34:11.605Z,26.31
2023-05-22T14:37:13.553Z,25.93
2023-05-22T14:40:15.691Z,25.62
2023-05-22T14:43:17.773Z,25.35
2023-05-22T14:46:19.639Z,25.08
2023-05-22T14:49:21.670Z,24.82
2023-05-22T14:52:23.434Z,24.59
2023-05-22T14:55:27.736Z,24.37
2023-05-22T14:58:29.779Z,24.18
2023-05-22T15:01:32.786Z,24.03
2023-05-22T15:04:34.939Z,23.89
2023-05-22T15:10:41.753Z,23.63
2023-05-22T15:13:43.663Z,23.51
2023-05-22T15:16:46.053Z,23.39
2023-05-22T15:19:48.963Z,23.25
2023-05-22T15:22:50.890Z,23.00
2023-05-22T15:25:54.220Z,22.58
2023-05-22T15:29:01.296Z,22.07
2023-05-22T15:32:03.263Z,21.62
2023-05-22T15:35:06.983Z,21.27
2023-05-22T15:38:12.564Z,20.99
2023-05-22T15:41:14.442Z,20.76
2023-05-22T15:44:16.354Z,20.68
2023-05-22T15:47:18.490Z,20.55
2023-05-22T15:50:23.139Z,20.47
2023-05-22T15:53:25.685Z,20.35
2023-05-22T15:56:27.503Z,20.25
2023-05-22T15:59:58.570Z,20.12
2023-05-22T16:03:01.572Z,20.07
2023-05-22T16:06:03.843Z,20.10
2023-05-22T16:09:06.302Z,20.09
2023-05-22T16:12:08.477Z,20.08
2023-05-22T16:15:10.875Z,19.96
2023-05-22T16:18:13.075Z,19.61
2023-05-22T16:21:15.129Z,19.55
2023-05-22T16:24:18.563Z,19.56
2023-05-22T16:27:21.683Z,19.55
2023-05-22T16:30:23.924Z,19.46
2023-05-22T16:33:25.900Z,19.43
2023-05-22T16:36:28.100Z,19.21
2023-05-22T16:39:29.985Z,19.16
2023-05-22T16:42:32.479Z,19.02
2023-05-22T16:45:34.188Z,19.01
2023-05-22T16:48:36.968Z,18.90
2023-05-22T16:51:38.667Z,18.79
2023-05-22T16:54:40.664Z,18.76
2023-05-22T16:57:43.374Z,18.63
2023-05-22T17:00:45.365Z,18.58
2023-05-22T17:03:47.572Z,18.56
2023-05-22T17:06:49.697Z,18.54
2023-05-22T17:09:53.816Z,18.47
2023-05-22T17:12:55.490Z,18.39
2023-05-22T17:15:57.542Z,18.26
2023-05-22T17:19:00.355Z,18.30
2023-05-22T17:22:03.384Z,18.36
2023-05-22T17:25:06.294Z,18.39
2023-05-22T17:28:08.913Z,18.41
2023-05-22T17:31:11.986Z,18.33
2023-05-22T17:34:13.866Z,18.22
2023-05-22T17:37:15.869Z,18.11
2023-05-22T17:40:18.913Z,17.94
2023-05-22T17:43:20.682Z,17.89
2023-05-22T17:46:22.664Z,17.88
2023-05-22T17:49:24.646Z,17.85
2023-05-22T17:52:26.851Z,17.83
2023-05-22T17:55:28.689Z,17.77
2023-05-22T17:58:30.711Z,17.69
2023-05-22T18:01:32.873Z,17.69
2023-05-22T18:04:34.800Z,17.62
2023-05-22T18:07:36.903Z,17.57
2023-05-22T18:10:38.799Z,17.53
2023-05-22T18:13:40.519Z,17.58
2023-05-22T18:16:42.256Z,17.58
2023-05-22T18:19:44.037Z,17.42
2023-05-22T18:22:46.202Z,17.30
2023-05-22T18:25:47.996Z,17.08
2023-05-22T18:28:49.719Z,17.09
2023-05-22T18:31:52.839Z,17.09
2023-05-22T18:34:54.737Z,17.15
2023-05-22T18:37:58.675Z,17.20
2023-05-22T18:41:00.849Z,17.21
2023-05-22T18:44:02.587Z,17.24
2023-05-22T18:47:04.726Z,17.21
2023-05-22T18:50:07.329Z,17.26
2023-05-22T18:53:10.335Z,17.27
2023-05-22T18:56:13.649Z,17.23
2023-05-22T18:59:15.885Z,17.22
2023-05-22T19:02:21.187Z,17.18
2023-05-22T19:05:24.970Z,17.20
2023-05-22T19:08:27.095Z,17.18
2023-05-22T19:11:28.641Z,17.12
2023-05-22T19:14:30.647Z,17.10
2023-05-22T19:17:32.860Z,17.12
2023-05-22T19:20:34.813Z,17.10
2023-05-22T19:23:36.876Z,16.99
2023-05-22T19:26:38.639Z,16.99
2023-05-22T19:29:40.930Z,16.98
2023-05-22T19:32:43.860Z,16.98
2023-05-22T19:35:45.692Z,16.98
2023-05-22T19:38:48.521Z,16.95
2023-05-22T19:41:54.572Z,16.98
2023-05-22T19:44:56.428Z,16.98
2023-05-22T19:47:58.161Z,16.95
2023-05-22T19:50:59.965Z,16.98
2023-05-22T19:54:01.568Z,17.00
2023-05-22T19:57:03.316Z,16.98
2023-05-22T20:00:07.702Z,16.94
2023-05-22T20:03:09.515Z,16.95
2023-05-22T20:06:12.584Z,16.92
2023-05-22T20:09:14.461Z,16.92
2023-05-22T20:12:17.689Z,16.92
2023-05-22T20:15:20.219Z,16.89
2023-05-22T20:18:23.000Z,16.84
2023-05-22T20:21:24.917Z,16.82
2023-05-22T20:24:26.513Z,16.85
2023-05-22T20:27:28.380Z,16.72
2023-05-22T20:30:30.807Z,16.69
2023-05-22T20:33:32.641Z,16.73
2023-05-22T20:36:35.011Z,16.70
2023-05-22T20:39:36.932Z,16.69
2023-05-22T20:42:40.940Z,16.69
2023-05-22T20:45:45.690Z,16.69
2023-05-22T20:48:48.472Z,16.69
2023-05-22T20:51:51.435Z,16.68
2023-05-22T20:54:53.229Z,16.67
2023-05-22T20:57:54.887Z,16.67
2023-05-22T21:00:56.693Z,16.65
2023-05-22T21:03:58.479Z,16.65
2023-05-22T21:07:00.338Z,16.65
2023-05-22T21:10:02.283Z,16.64
2023-05-22T21:13:04.115Z,16.60
2023-05-22T21:16:06.213Z,16.57
2023-05-22T21:19:08.167Z,16.59
2023-05-22T21:22:09.844Z,16.58
2023-05-22T21:25:11.518Z,16.60
2023-05-22T21:28:13.137Z,16.59
2023-05-22T21:31:14.951Z,16.60
2023-05-22T21:34:16.790Z,16.60
2023-05-22T21:37:18.506Z,16.59
2023-05-22T21:40:20.453Z,16.54
2023-05-22T21:43:22.201Z,16.46
2023-05-22T21:46:24.385Z,16.45
2023-05-22T21:49:26.196Z,16.46
2023-05-22T21:52:28.934Z,16.46
2023-05-22T21:55:31.129Z,16.44
2023-05-22T21:58:32.996Z,16.41
2023-05-22T22:01:34.853Z,16.38
2023-05-22T22:04:36.559Z,16.36
2023-05-22T22:07:38.385Z,16.34
2023-05-22T22:10:40.621Z,16.33
2023-05-22T22:13:42.710Z,16.30
2023-05-22T22:16:45.402Z,16.24
2023-05-22T22:19:47.150Z,16.20
2023-05-22T22:22:48.884Z,16.15
2023-05-22T22:25:50.639Z,16.09
2023-05-22T22:28:52.775Z,16.05
2023-05-22T22:31:54.421Z,16.02
2023-05-22T22:34:56.266Z,15.99
2023-05-22T22:37:58.695Z,15.95
2023-05-22T22:41:00.630Z,15.90
2023-05-22T22:44:02.596Z,15.86
2023-05-22T22:47:04.709Z,15.83
2023-05-22T22:50:08.234Z,15.76
2023-05-22T22:53:09.875Z,15.67
2023-05-22T22:56:12.537Z,15.63
2023-05-22T22:59:14.411Z,15.60
2023-05-22T23:02:16.552Z,15.55
2023-05-22T23:05:20.464Z,15.50
2023-05-22T23:08:22.671Z,15.44
2023-05-22T23:11:27.112Z,15.40
2023-05-22T23:14:29.386Z,15.37
2023-05-22T23:17:31.273Z,15.33
2023-05-22T23:20:33.307Z,15.26
2023-05-22T23:23:35.046Z,15.19
2023-05-22T23:26:36.786Z,15.16
2023-05-22T23:29:38.543Z,15.27
2023-05-22T23:32:40.394Z,15.18
2023-05-22T23:35:42.506Z,15.18
2023-05-22T23:38:48.533Z,15.26
2023-05-22T23:41:50.181Z,15.38
2023-05-22T23:44:52.143Z,15.42
2023-05-22T23:47:54.067Z,15.51
2023-05-22T23:50:55.921Z,15.60
2023-05-22T23:53:57.555Z,15.67
2023-05-22T23:56:59.357Z,15.69
